Time;durP1;ratioP1;P1;durP2;ratioP2;P2;SDS_P1;SDS_P2;PMS_P1;PMS_P2;Temp;Humidity;BMP_temperature;BMP_pressure;BME280_temperature;BME280_humidity;BME280_pressure;Samples;Min_cycle;Max_cycle;Signal;HPM_P1;HPM_P2
2023/12/13 00:02:04;;;;;;;1.70;0.60;;;8.20;19.70;;;;;;5032200;28;20205;-70
2023/12/13 00:04:30;;;;;;;1.60;0.60;;;8.20;19.00;;;;;;5032196;28;20742;-70
2023/12/13 00:06:55;;;;;;;1.60;0.60;;;8.20;19.00;;;;;;5031670;28;20213;-69
2023/12/13 00:09:21;;;;;;;2.20;0.87;;;8.10;18.40;;;;;;5031880;28;20656;-69
2023/12/13 00:11:47;;;;;;;2.83;1.00;;;8.10;19.80;;;;;;5031924;28;20174;-69
2023/12/13 00:14:12;;;;;;;1.87;0.70;;;8.10;19.70;;;;;;5031889;28;20422;-69
2023/12/13 00:16:38;;;;;;;2.53;0.70;;;8.10;19.70;;;;;;5031879;28;20267;-70
2023/12/13 00:19:04;;;;;;;1.80;0.70;;;8.10;19.30;;;;;;5031735;28;20186;-70
2023/12/13 00:21:30;;;;;;;2.40;1.10;;;8.00;19.80;;;;;;5032048;28;20499;-69
2023/12/13 00:23:56;;;;;;;4.73;1.07;;;8.00;18.90;;;;;;5031720;28;20544;-69
2023/12/13 00:26:23;;;;;;;2.00;0.63;;;8.00;18.60;;;;;;5031663;28;20259;-69
2023/12/13 00:28:50;;;;;;;2.77;0.90;;;7.90;19.40;;;;;;5014193;28;20499;-70
2023/12/13 00:31:16;;;;;;;2.97;1.00;;;7.90;19.20;;;;;;5031758;28;20428;-69
2023/12/13 00:33:45;;;;;;;2.53;0.90;;;7.90;20.30;;;;;;5031652;28;20459;-71
2023/12/13 00:36:10;;;;;;;7.03;1.40;;;7.90;19.80;;;;;;5031823;28;20464;-71
2023/12/13 00:38:36;;;;;;;1.90;0.70;;;7.90;20.80;;;;;;5031611;28;20895;-71
2023/12/13 00:41:01;;;;;;;2.00;0.73;;;7.80;20.80;;;;;;5031951;28;20240;-71
2023/12/13 00:43:27;;;;;;;1.60;0.60;;;7.70;21.60;;;;;;5032099;28;20186;-71
2023/12/13 00:45:52;;;;;;;1.83;0.60;;;7.70;21.90;;;;;;5032130;28;20209;-71
2023/12/13 00:48:18;;;;;;;1.70;0.70;;;7.60;21.80;;;;;;5031740;28;20231;-71
2023/12/13 00:50:44;;;;;;;6.77;0.93;;;7.60;22.60;;;;;;5031637;28;20191;-71
2023/12/13 00:53:12;;;;;;;2.07;0.90;;;7.60;21.80;;;;;;5013914;28;20669;-71
2023/12/13 00:55:38;;;;;;;2.60;0.80;;;7.60;21.80;;;;;;5031572;28;20174;-71
2023/12/13 00:58:03;;;;;;;2.23;0.60;;;7.60;21.80;;;;;;5031534;28;20444;-71
2023/12/13 01:00:29;;;;;;;2.90;1.13;;;7.50;21.60;;;;;;5031586;28;20249;-71
2023/12/13 01:02:55;;;;;;;5.50;2.00;;;7.50;21.20;;;;;;5031601;28;20185;-71
2023/12/13 01:05:21;;;;;;;2.03;1.00;;;7.50;21.60;;;;;;5031450;28;20468;-71
2023/12/13 01:07:46;;;;;;;2.03;0.57;;;7.40;21.30;;;;;;5031690;28;20250;-71
2023/12/13 01:10:12;;;;;;;1.90;0.80;;;7.30;21.10;;;;;;5031566;28;20665;-71
2023/12/13 01:12:41;;;;;;;4.23;0.93;;;7.40;21.70;;;;;;5031537;28;20182;-71
2023/12/13 01:15:07;;;;;;;1.90;0.90;;;7.30;21.20;;;;;;5031547;28;20183;-71
2023/12/13 01:17:32;;;;;;;2.00;1.07;;;7.30;21.60;;;;;;5031326;28;20499;-71
2023/12/13 01:19:58;;;;;;;3.33;0.93;;;7.30;21.60;;;;;;5031379;28;20285;-71
2023/12/13 01:22:24;;;;;;;2.37;1.17;;;7.30;21.60;;;;;;5016363;28;20214;-71
2023/12/13 01:24:49;;;;;;;1.70;0.70;;;7.30;21.60;;;;;;5035107;28;20261;-71
2023/12/13 01:27:15;;;;;;;4.43;1.10;;;7.30;21.40;;;;;;5034987;28;20245;-71
2023/12/13 01:29:40;;;;;;;2.73;1.00;;;7.20;21.60;;;;;;5035028;28;20187;-71
2023/12/13 01:32:06;;;;;;;3.80;1.27;;;7.20;21.50;;;;;;5035021;28;20222;-71
2023/12/13 01:34:32;;;;;;;7.13;0.80;;;7.20;22.10;;;;;;5017251;28;20466;-71
2023/12/13 01:36:57;;;;;;;2.77;0.90;;;7.20;23.00;;;;;;5034663;28;20338;-71
2023/12/13 01:39:23;;;;;;;2.97;1.00;;;7.30;23.30;;;;;;5034766;28;20178;-71
2023/12/13 01:41:48;;;;;;;3.10;0.90;;;7.30;22.50;;;;;;5035271;28;20275;-71
2023/12/13 01:44:14;;;;;;;1.83;0.80;;;7.40;21.70;;;;;;5017538;28;20258;-71
2023/12/13 01:46:41;;;;;;;2.07;0.77;;;7.40;22.00;;;;;;5035058;28;20213;-71
2023/12/13 01:49:08;;;;;;;3.10;0.93;;;7.50;22.30;;;;;;5034899;28;20277;-71
2023/12/13 01:51:38;;;;;;;8.63;1.37;;;7.50;22.70;;;;;;5034879;28;20441;-71
2023/12/13 01:54:08;;;;;;;5.23;0.80;;;7.40;23.10;;;;;;5034768;28;20409;-71
2023/12/13 01:56:33;;;;;;;4.67;1.77;;;7.30;23.00;;;;;;5034502;28;20490;-71
2023/12/13 01:58:59;;;;;;;2.40;1.13;;;7.30;23.90;;;;;;5034392;28;20506;-71
2023/12/13 02:01:25;;;;;;;2.67;1.10;;;7.30;25.30;;;;;;5034716;28;20180;-71
2023/12/13 02:03:50;;;;;;;2.80;1.17;;;7.30;25.00;;;;;;5034652;28;20183;-71
2023/12/13 02:06:16;;;;;;;3.60;1.00;;;7.30;25.70;;;;;;5035104;28;20217;-71
2023/12/13 02:08:42;;;;;;;3.60;1.00;;;7.30;25.80;;;;;;5034872;28;20252;-71
2023/12/13 02:11:07;;;;;;;3.90;1.00;;;7.30;26.00;;;;;;5034640;28;20183;-71
2023/12/13 02:13:33;;;;;;;2.73;1.20;;;7.30;26.40;;;;;;5034833;28;20718;-71
2023/12/13 02:15:59;;;;;;;2.67;1.00;;;7.20;26.80;;;;;;5034432;28;20261;-71
2023/12/13 02:18:26;;;;;;;4.80;1.50;;;7.10;27.50;;;;;;5034267;28;20921;-71
2023/12/13 02:20:53;;;;;;;3.27;1.17;;;6.90;28.60;;;;;;5034177;28;20197;-71
2023/12/13 02:23:18;;;;;;;3.77;1.33;;;6.90;29.60;;;;;;5034232;28;20427;-71
2023/12/13 02:25:59;;;;;;;7.90;1.60;;;6.80;30.20;;;;;;5034292;28;20459;-71
2023/12/13 02:28:26;;;;;;;1.83;1.00;;;6.70;31.30;;;;;;5033991;28;20195;-71
2023/12/13 02:30:54;;;;;;;4.23;1.33;;;6.60;32.30;;;;;;5033945;28;20431;-71
2023/12/13 02:33:25;;;;;;;2.97;1.13;;;6.60;32.70;;;;;;5033936;28;20415;-71
2023/12/13 02:35:52;;;;;;;5.37;1.53;;;6.50;34.20;;;;;;5033951;28;20783;-71
2023/12/13 02:38:18;;;;;;;2.13;1.10;;;6.50;34.90;;;;;;5033700;28;20539;-71
2023/12/13 02:40:43;;;;;;;2.07;0.87;;;6.50;34.90;;;;;;5033853;28;20930;-71
2023/12/13 02:43:09;;;;;;;2.23;1.17;;;6.50;34.20;;;;;;5033830;28;20184;-71
2023/12/13 02:45:34;;;;;;;1.67;0.87;;;6.40;34.50;;;;;;5033790;28;20212;-71
2023/12/13 02:48:00;;;;;;;2.90;1.20;;;6.40;35.60;;;;;;5033620;28;20195;-71
2023/12/13 02:50:26;;;;;;;3.30;1.00;;;6.40;35.40;;;;;;5033791;28;20180;-71
2023/12/13 02:52:51;;;;;;;5.43;1.27;;;6.40;35.40;;;;;;5033681;28;20184;-71
2023/12/13 02:55:17;;;;;;;1.70;0.80;;;6.40;37.20;;;;;;5033521;28;20418;-71
2023/12/13 02:57:43;;;;;;;3.47;1.03;;;6.40;36.30;;;;;;5033343;28;20214;-71
2023/12/13 03:00:09;;;;;;;7.20;1.20;;;6.40;37.40;;;;;;5033450;28;20257;-71
2023/12/13 03:02:35;;;;;;;3.63;1.00;;;6.50;36.80;;;;;;5015592;28;20272;-71
2023/12/13 03:05:01;;;;;;;3.70;1.03;;;6.50;37.90;;;;;;5033314;28;20975;-71
2023/12/13 03:07:27;;;;;;;3.27;1.00;;;6.60;37.20;;;;;;5015365;28;20448;-71
2023/12/13 03:09:53;;;;;;;2.40;1.00;;;6.70;36.20;;;;;;5033191;28;20442;-71
2023/12/13 03:12:18;;;;;;;3.00;0.80;;;6.70;34.70;;;;;;5015470;28;20994;-71
2023/12/13 03:14:44;;;;;;;2.37;0.60;;;6.80;34.00;;;;;;5033204;28;20179;-71
2023/12/13 03:17:09;;;;;;;6.60;1.47;;;6.90;33.60;;;;;;5032889;28;20227;-71
2023/12/13 03:19:35;;;;;;;3.10;0.90;;;7.00;31.60;;;;;;5033116;28;20652;-71
2023/12/13 03:22:00;;;;;;;2.13;1.00;;;7.10;30.30;;;;;;5033072;28;20664;-71
2023/12/13 03:24:26;;;;;;;5.07;1.63;;;7.10;29.10;;;;;;5033031;28;20176;-71
2023/12/13 03:26:52;;;;;;;1.87;0.80;;;7.10;29.70;;;;;;5032720;28;20220;-71
2023/12/13 03:29:17;;;;;;;2.17;0.80;;;7.20;28.80;;;;;;5033039;28;20214;-71
2023/12/13 03:31:43;;;;;;;4.40;1.07;;;7.10;28.60;;;;;;5015105;28;20174;-71
2023/12/13 03:34:09;;;;;;;1.90;0.90;;;7.20;28.20;;;;;;5032816;28;20174;-71
2023/12/13 03:36:34;;;;;;;1.90;0.70;;;7.20;28.40;;;;;;5032813;28;20208;-71
2023/12/13 03:39:00;;;;;;;2.13;0.90;;;7.10;28.30;;;;;;5032654;28;20567;-71
2023/12/13 03:41:25;;;;;;;1.90;0.70;;;7.20;28.40;;;;;;5015074;28;20607;-71
2023/12/13 03:43:51;;;;;;;3.20;0.70;;;7.20;28.00;;;;;;5014525;28;20207;-71
2023/12/13 03:46:16;;;;;;;1.40;0.50;;;7.30;27.70;;;;;;5032362;28;20336;-71
2023/12/13 03:48:42;;;;;;;2.90;1.00;;;7.30;28.40;;;;;;5032371;28;20170;-71
2023/12/13 03:51:07;;;;;;;3.30;0.60;;;7.40;27.10;;;;;;5032390;28;20641;-71
2023/12/13 03:53:33;;;;;;;1.67;0.67;;;7.40;27.10;;;;;;5032452;28;20522;-71
2023/12/13 03:55:59;;;;;;;1.90;0.70;;;7.40;27.30;;;;;;5032340;28;20301;-70
2023/12/13 03:58:25;;;;;;;1.50;0.57;;;7.40;27.10;;;;;;5032341;28;20426;-71
2023/12/13 04:00:51;;;;;;;1.83;0.63;;;7.50;27.50;;;;;;5032215;28;20408;-71
2023/12/13 04:03:17;;;;;;;2.10;0.80;;;7.50;27.50;;;;;;5032328;28;20175;-71
2023/12/13 04:05:42;;;;;;;2.03;0.90;;;7.50;26.70;;;;;;5032012;28;20526;-71
2023/12/13 04:08:08;;;;;;;1.60;0.70;;;7.60;26.00;;;;;;5032006;28;20542;-71
2023/12/13 04:10:34;;;;;;;2.20;1.00;;;7.70;25.60;;;;;;5032089;28;20649;-71
2023/12/13 04:12:59;;;;;;;2.73;1.07;;;7.70;25.60;;;;;;5032494;28;20462;-71
2023/12/13 04:15:25;;;;;;;4.03;1.27;;;7.70;25.60;;;;;;5031919;28;20178;-71
2023/12/13 04:17:50;;;;;;;1.60;0.80;;;7.80;25.10;;;;;;5031855;28;20194;-71
2023/12/13 04:20:16;;;;;;;3.30;0.80;;;7.80;24.90;;;;;;5031920;28;20186;-71
2023/12/13 04:22:42;;;;;;;2.63;0.90;;;7.80;25.50;;;;;;5032193;28;20182;-71
2023/12/13 04:25:08;;;;;;;1.80;0.60;;;7.80;25.50;;;;;;5031748;28;20312;-71
2023/12/13 04:27:34;;;;;;;1.83;0.80;;;7.80;25.70;;;;;;5031973;28;20206;-71
2023/12/13 04:29:59;;;;;;;1.70;0.80;;;7.90;24.80;;;;;;5031754;28;20409;-71
2023/12/13 04:32:25;;;;;;;1.70;0.70;;;7.80;25.20;;;;;;5031825;28;20941;-71
2023/12/13 04:34:50;;;;;;;2.97;0.90;;;7.90;24.80;;;;;;5031859;28;20174;-71
2023/12/13 04:37:16;;;;;;;2.10;0.90;;;7.90;24.30;;;;;;5031833;28;20205;-71
2023/12/13 04:39:41;;;;;;;2.03;0.80;;;7.90;25.00;;;;;;5032097;28;20197;-71
2023/12/13 04:42:07;;;;;;;1.60;0.70;;;7.90;25.10;;;;;;5031830;28;20245;-71
2023/12/13 04:44:33;;;;;;;2.00;0.70;;;7.90;25.20;;;;;;5031791;28;20185;-71
2023/12/13 04:46:58;;;;;;;1.50;0.60;;;7.90;25.20;;;;;;5031572;28;20236;-71
2023/12/13 04:49:24;;;;;;;4.70;0.80;;;7.90;25.30;;;;;;5031889;28;20174;-71
2023/12/13 04:51:49;;;;;;;1.70;0.70;;;8.00;24.50;;;;;;5032068;28;20182;-71
2023/12/13 04:54:15;;;;;;;1.50;0.60;;;8.00;24.00;;;;;;5032020;28;20253;-71
2023/12/13 04:56:41;;;;;;;1.80;0.70;;;8.10;23.80;;;;;;5033506;28;20259;-71
2023/12/13 04:59:06;;;;;;;2.30;0.73;;;8.10;24.40;;;;;;5035358;28;20179;-71
2023/12/13 05:01:32;;;;;;;3.30;0.80;;;8.10;23.60;;;;;;5035621;28;20173;-71
2023/12/13 05:03:57;;;;;;;1.63;0.83;;;8.10;24.00;;;;;;5035601;28;20240;-71
2023/12/13 05:06:23;;;;;;;1.80;0.83;;;8.10;23.70;;;;;;5035654;28;20281;-71
2023/12/13 05:08:49;;;;;;;6.60;1.43;;;8.10;23.70;;;;;;5035310;28;20170;-71
2023/12/13 05:11:15;;;;;;;2.03;0.80;;;8.10;23.60;;;;;;5035391;28;20202;-71
2023/12/13 05:13:40;;;;;;;2.53;1.23;;;8.20;24.50;;;;;;5035385;28;20544;-71
2023/12/13 05:16:07;;;;;;;3.43;1.27;;;8.20;24.10;;;;;;5035205;28;20418;-71
2023/12/13 05:18:33;;;;;;;3.00;1.40;;;8.10;23.90;;;;;;5035053;28;20597;-71
2023/12/13 05:20:58;;;;;;;2.87;1.17;;;8.10;24.00;;;;;;5035260;28;20424;-71
2023/12/13 05:23:25;;;;;;;2.37;0.80;;;8.10;24.60;;;;;;5035251;28;20191;-71
2023/12/13 05:25:51;;;;;;;1.87;0.90;;;8.10;25.10;;;;;;5034923;28;20675;-71
2023/12/13 05:28:16;;;;;;;2.43;0.83;;;8.10;24.90;;;;;;5034955;28;20417;-71
2023/12/13 05:30:42;;;;;;;2.27;0.90;;;8.10;24.60;;;;;;5035005;28;20516;-71
2023/12/13 05:33:08;;;;;;;2.60;1.20;;;8.10;24.10;;;;;;5034928;28;20181;-71
2023/12/13 05:35:34;;;;;;;1.80;0.70;;;8.20;24.60;;;;;;5034907;28;20193;-71
2023/12/13 05:37:59;;;;;;;3.70;1.63;;;8.20;24.40;;;;;;5034743;28;20445;-71
2023/12/13 05:40:25;;;;;;;2.50;1.10;;;8.20;24.70;;;;;;5034803;28;20951;-71
2023/12/13 05:42:51;;;;;;;4.73;1.10;;;8.20;23.60;;;;;;5034750;28;20171;-71
2023/12/13 05:45:16;;;;;;;1.97;0.97;;;8.20;23.20;;;;;;5034677;28;20395;-71
2023/12/13 05:47:42;;;;;;;2.17;0.90;;;8.20;22.20;;;;;;5034539;28;20203;-71
2023/12/13 05:50:08;;;;;;;2.23;0.77;;;8.30;22.60;;;;;;5034707;28;20546;-71
2023/12/13 05:52:33;;;;;;;1.97;0.70;;;8.20;22.20;;;;;;5034724;28;20179;-71
2023/12/13 05:54:59;;;;;;;2.20;1.10;;;8.20;22.20;;;;;;5034579;28;20267;-71
2023/12/13 05:57:25;;;;;;;1.80;0.80;;;8.20;22.20;;;;;;5034098;28;20734;-71
2023/12/13 05:59:51;;;;;;;3.67;0.77;;;8.20;22.20;;;;;;5034386;28;20429;-71
2023/12/13 06:02:16;;;;;;;2.67;1.00;;;8.20;22.20;;;;;;5034254;28;20245;-71
2023/12/13 06:04:43;;;;;;;2.30;1.43;;;8.20;23.00;;;;;;5034400;28;20232;-71
2023/12/13 06:07:09;;;;;;;2.23;0.83;;;8.10;22.40;;;;;;5033639;28;20261;-71
2023/12/13 06:09:35;;;;;;;3.47;1.43;;;8.00;23.10;;;;;;5034288;28;20439;-71
2023/12/13 06:12:00;;;;;;;2.60;1.20;;;8.00;22.00;;;;;;5034299;28;20512;-71
2023/12/13 06:14:26;;;;;;;2.00;1.13;;;8.00;23.50;;;;;;5034322;28;20225;-71
2023/12/13 06:16:51;;;;;;;2.80;1.37;;;7.90;24.00;;;;;;5034246;28;20206;-71
2023/12/13 06:19:17;;;;;;;2.60;1.20;;;7.90;25.20;;;;;;5034136;28;20264;-71
2023/12/13 06:21:42;;;;;;;2.03;1.07;;;7.90;24.70;;;;;;5034647;28;20190;-71
2023/12/13 06:24:08;;;;;;;2.57;1.07;;;7.90;25.40;;;;;;5034422;28;20543;-71
2023/12/13 06:26:34;;;;;;;2.17;1.10;;;8.00;25.70;;;;;;5033889;28;20582;-71
2023/12/13 06:29:00;;;;;;;5.57;1.87;;;8.00;25.50;;;;;;5034021;28;20198;-71
2023/12/13 06:31:26;;;;;;;3.60;1.40;;;8.00;25.30;;;;;;5033823;28;20887;-71
2023/12/13 06:33:51;;;;;;;4.80;1.40;;;8.00;25.80;;;;;;5034102;28;20355;-71
2023/12/13 06:36:17;;;;;;;2.43;1.30;;;8.10;25.50;;;;;;5033765;28;20437;-71
2023/12/13 06:38:42;;;;;;;3.10;1.73;;;8.10;24.70;;;;;;5034223;28;20658;-71
2023/12/13 06:41:08;;;;;;;4.83;1.17;;;8.00;24.90;;;;;;5033906;28;20177;-71
2023/12/13 06:43:33;;;;;;;4.20;1.10;;;8.00;25.90;;;;;;5033735;28;20175;-71
2023/12/13 06:45:59;;;;;;;6.03;1.30;;;8.00;26.70;;;;;;5033570;28;20207;-71
2023/12/13 06:48:24;;;;;;;3.53;1.20;;;8.00;26.40;;;;;;5033886;28;20545;-72
2023/12/13 06:50:50;;;;;;;2.90;1.27;;;8.00;27.30;;;;;;5015847;28;20599;-71
2023/12/13 06:53:15;;;;;;;2.87;1.43;;;8.00;27.90;;;;;;5033468;28;20245;-71
2023/12/13 06:55:41;;;;;;;6.83;1.40;;;8.00;27.80;;;;;;5033378;28;20198;-71
2023/12/13 06:58:07;;;;;;;5.43;1.50;;;8.00;27.70;;;;;;5033563;28;20183;-71
2023/12/13 07:00:32;;;;;;;3.50;2.17;;;8.00;28.50;;;;;;5033702;28;20227;-71
2023/12/13 07:02:58;;;;;;;2.03;1.03;;;8.00;29.00;;;;;;5034185;28;20697;-71
2023/12/13 07:05:23;;;;;;;2.67;1.50;;;7.90;29.40;;;;;;5034038;28;20194;-72
2023/12/13 07:07:49;;;;;;;2.10;1.20;;;7.90;29.40;;;;;;5033482;28;20187;-71
2023/12/13 07:10:15;;;;;;;4.50;1.83;;;7.90;29.70;;;;;;5033595;28;20186;-71
2023/12/13 07:12:41;;;;;;;6.37;2.10;;;7.90;29.10;;;;;;5033651;28;20186;-71
2023/12/13 07:15:08;;;;;;;10.47;3.20;;;7.90;29.40;;;;;;5033509;28;20413;-71
2023/12/13 07:17:33;;;;;;;9.30;2.30;;;7.90;30.20;;;;;;5033217;28;20194;-71
2023/12/13 07:19:59;;;;;;;3.93;2.00;;;7.80;30.60;;;;;;5032736;28;20464;-71
2023/12/13 07:22:24;;;;;;;4.50;2.33;;;7.80;32.60;;;;;;5033479;28;20175;-71
2023/12/13 07:24:50;;;;;;;5.57;2.00;;;7.80;34.10;;;;;;5033054;28;20184;-71
2023/12/13 07:27:16;;;;;;;3.00;1.90;;;7.90;33.30;;;;;;5032745;28;20229;-71
2023/12/13 07:29:42;;;;;;;2.90;1.90;;;7.80;33.70;;;;;;5032879;28;20415;-71
2023/12/13 07:32:08;;;;;;;3.10;1.30;;;7.90;33.40;;;;;;5032893;28;20262;-71
2023/12/13 07:34:36;;;;;;;3.00;1.77;;;7.90;33.20;;;;;;5015151;28;20456;-71
2023/12/13 07:37:01;;;;;;;7.30;2.50;;;7.90;33.20;;;;;;5032719;28;21015;-71
2023/12/13 07:39:30;;;;;;;10.83;2.17;;;7.90;31.80;;;;;;5032511;28;20520;-71
2023/12/13 07:41:56;;;;;;;3.23;1.57;;;7.90;31.20;;;;;;5032775;28;20184;-71
2023/12/13 07:44:22;;;;;;;4.20;2.00;;;8.00;30.60;;;;;;5015028;28;20433;-71
2023/12/13 07:46:47;;;;;;;4.43;2.17;;;8.00;30.30;;;;;;5032557;28;20617;-71
2023/12/13 07:49:13;;;;;;;3.30;1.87;;;8.00;30.30;;;;;;5032387;28;20225;-71
2023/12/13 07:51:39;;;;;;;3.00;1.60;;;8.00;29.80;;;;;;5032660;28;20179;-71
2023/12/13 07:54:04;;;;;;;10.37;2.07;;;8.00;30.20;;;;;;5032349;28;20596;-71
2023/12/13 07:56:30;;;;;;;3.57;1.90;;;8.00;30.30;;;;;;5033513;28;20457;-71
2023/12/13 07:58:56;;;;;;;7.33;2.93;;;8.10;30.40;;;;;;5032553;28;20178;-71
2023/12/13 08:01:22;;;;;;;6.20;2.47;;;8.00;30.20;;;;;;5033151;28;20551;-71
2023/12/13 08:03:48;;;;;;;2.70;1.70;;;8.00;29.70;;;;;;5032438;28;20172;-71
2023/12/13 08:06:14;;;;;;;2.97;1.50;;;8.10;30.30;;;;;;5032218;28;20469;-71
2023/12/13 08:08:40;;;;;;;3.70;1.67;;;8.10;29.90;;;;;;5032179;28;20406;-71
2023/12/13 08:11:06;;;;;;;3.43;1.90;;;8.10;29.60;;;;;;5033324;28;20420;-71
2023/12/13 08:13:33;;;;;;;3.43;2.00;;;8.20;30.40;;;;;;5032197;28;20409;-71
2023/12/13 08:15:59;;;;;;;3.40;1.90;;;8.20;30.40;;;;;;5033236;28;20433;-71
2023/12/13 08:18:24;;;;;;;4.80;2.63;;;8.20;30.40;;;;;;5033558;28;20842;-70
2023/12/13 08:20:50;;;;;;;5.40;2.70;;;8.30;29.10;;;;;;5032548;28;20213;-70
2023/12/13 08:23:15;;;;;;;4.07;2.37;;;8.40;27.80;;;;;;5031911;28;20179;-69
2023/12/13 08:25:41;;;;;;;2.60;2.00;;;8.40;26.40;;;;;;5031597;28;20203;-70
2023/12/13 08:28:08;;;;;;;3.80;2.60;;;8.40;26.90;;;;;;5031781;28;20171;-69
2023/12/13 08:30:34;;;;;;;4.57;2.50;;;8.40;25.80;;;;;;5031563;28;20417;-70
2023/12/13 08:32:59;;;;;;;5.90;2.63;;;8.40;26.10;;;;;;5033392;28;20445;-70
2023/12/13 08:35:26;;;;;;;5.50;2.60;;;8.40;26.40;;;;;;5032176;28;20438;-70
2023/12/13 08:37:52;;;;;;;4.00;2.00;;;8.40;27.10;;;;;;5031533;28;20187;-70
2023/12/13 08:40:18;;;;;;;6.50;3.10;;;8.50;27.40;;;;;;5014269;28;20944;-70
2023/12/13 08:42:43;;;;;;;4.73;2.77;;;8.50;26.50;;;;;;5031811;28;20811;-70
2023/12/13 08:45:10;;;;;;;5.00;3.00;;;8.50;26.50;;;;;;5031818;28;20171;-70
2023/12/13 08:47:36;;;;;;;4.77;3.17;;;8.50;26.60;;;;;;5013692;28;20241;-70
2023/12/13 08:50:02;;;;;;;6.53;3.50;;;8.50;27.40;;;;;;5032237;28;20449;-70
2023/12/13 08:52:28;;;;;;;3.57;2.03;;;8.50;27.00;;;;;;5031604;28;20902;-70
2023/12/13 08:54:54;;;;;;;4.70;2.93;;;8.60;27.30;;;;;;5031779;28;20410;-70
2023/12/13 08:57:19;;;;;;;2.80;2.07;;;8.60;27.10;;;;;;5031270;28;20956;-70
2023/12/13 08:59:45;;;;;;;6.73;2.50;;;8.50;27.10;;;;;;5031454;28;20186;-70
2023/12/13 09:02:10;;;;;;;2.93;1.90;;;8.50;27.90;;;;;;5031802;28;20172;-70
2023/12/13 09:04:36;;;;;;;2.80;2.13;;;8.60;28.10;;;;;;5031243;28;20210;-70
2023/12/13 09:07:01;;;;;;;3.30;2.53;;;8.60;26.60;;;;;;5030998;28;20221;-70
2023/12/13 09:09:27;;;;;;;3.97;2.33;;;8.60;27.80;;;;;;5031411;28;20175;-70
2023/12/13 09:11:52;;;;;;;4.87;2.40;;;8.60;26.60;;;;;;5031318;28;20607;-70
2023/12/13 09:14:18;;;;;;;4.10;2.20;;;8.60;26.80;;;;;;5031485;28;20170;-70
2023/12/13 09:16:43;;;;;;;5.30;2.67;;;8.60;27.00;;;;;;5014509;28;20199;-70
2023/12/13 09:19:09;;;;;;;4.13;1.57;;;8.60;27.10;;;;;;5031752;28;20206;-69
2023/12/13 09:21:34;;;;;;;2.77;1.70;;;8.60;27.50;;;;;;5032176;28;20179;-70
2023/12/13 09:24:00;;;;;;;8.00;2.17;;;8.60;28.10;;;;;;5031545;28;20175;-70
2023/12/13 09:26:26;;;;;;;3.33;1.93;;;8.70;27.70;;;;;;5031417;28;20286;-70
2023/12/13 09:28:53;;;;;;;2.97;2.03;;;8.70;26.60;;;;;;5031228;28;20185;-70
2023/12/13 09:31:18;;;;;;;2.43;1.93;;;8.80;26.70;;;;;;5031457;28;20258;-70
2023/12/13 09:33:44;;;;;;;4.80;2.40;;;8.90;26.00;;;;;;5031487;28;20450;-70
2023/12/13 09:36:09;;;;;;;3.30;2.30;;;8.90;24.10;;;;;;5031098;28;20206;-71
2023/12/13 09:38:35;;;;;;;11.20;1.77;;;8.90;22.70;;;;;;5030921;28;20179;-71
2023/12/13 09:41:00;;;;;;;3.10;1.90;;;8.90;21.00;;;;;;5031308;28;20262;-70
2023/12/13 09:43:37;;;;;;;5.50;2.53;;;8.80;21.40;;;;;;5033995;28;20646;-70
2023/12/13 09:46:05;;;;;;;2.53;1.20;;;8.90;21.10;;;;;;5035021;28;20207;-70
2023/12/13 09:48:34;;;;;;;3.40;1.60;;;9.00;21.10;;;;;;5034443;28;20417;-71
2023/12/13 09:51:05;;;;;;;8.13;1.50;;;9.20;21.00;;;;;;5034879;28;20417;-70
2023/12/13 09:53:36;;;;;;;4.90;2.00;;;9.30;18.10;;;;;;5034680;28;20897;-71
2023/12/13 09:56:02;;;;;;;2.40;1.80;;;9.50;17.20;;;;;;5016517;28;20531;-72
2023/12/13 09:58:30;;;;;;;2.60;1.60;;;9.60;17.40;;;;;;5034855;28;20792;-72
2023/12/13 10:00:56;;;;;;;4.30;2.27;;;9.70;15.80;;;;;;5035033;28;20843;-71
2023/12/13 10:03:22;;;;;;;4.23;2.50;;;9.70;15.40;;;;;;5016678;28;20430;-72
2023/12/13 10:05:51;;;;;;;5.37;1.47;;;9.70;15.40;;;;;;5016931;28;20225;-72
2023/12/13 10:08:16;;;;;;;2.63;1.40;;;9.60;14.50;;;;;;5034647;28;20418;-72
2023/12/13 10:10:53;;;;;;;4.63;1.30;;;9.30;17.40;;;;;;5035316;28;20775;-72
2023/12/13 10:13:19;;;;;;;2.33;0.90;;;9.10;19.10;;;;;;5035593;28;20692;-72
2023/12/13 10:15:51;;;;;;;2.63;0.90;;;9.10;19.70;;;;;;5034648;28;20410;-72
2023/12/13 10:18:17;;;;;;;2.87;1.00;;;9.10;21.10;;;;;;5017014;28;20187;-71
2023/12/13 10:20:46;;;;;;;2.80;1.10;;;9.10;20.50;;;;;;5034179;28;20509;-72
2023/12/13 10:23:16;;;;;;;4.63;1.30;;;9.10;22.00;;;;;;5016560;28;20194;-72
2023/12/13 10:25:47;;;;;;;2.73;1.13;;;9.10;22.30;;;;;;5015849;28;20466;-72
2023/12/13 10:28:14;;;;;;;3.10;0.90;;;9.10;22.80;;;;;;5034356;28;20493;-70
2023/12/13 10:30:40;;;;;;;3.50;1.60;;;9.00;22.60;;;;;;5034150;28;20406;-71
2023/12/13 10:33:05;;;;;;;2.07;1.00;;;9.10;22.50;;;;;;5016634;28;20410;-71
2023/12/13 10:35:31;;;;;;;2.23;1.03;;;9.20;21.10;;;;;;5034396;28;20783;-71
2023/12/13 10:38:01;;;;;;;2.53;1.33;;;9.20;18.60;;;;;;5034037;28;20698;-72
2023/12/13 10:40:27;;;;;;;3.60;1.67;;;9.30;18.60;;;;;;5033993;28;20195;-72
2023/12/13 10:42:56;;;;;;;2.20;1.10;;;9.30;17.80;;;;;;5034807;28;20418;-72
2023/12/13 10:45:23;;;;;;;3.20;1.20;;;9.60;18.50;;;;;;5035186;28;20170;-72
2023/12/13 10:47:53;;;;;;;3.57;1.50;;;9.80;16.70;;;;;;5015702;28;20469;-72
2023/12/13 10:50:22;;;;;;;2.43;1.00;;;10.10;14.10;;;;;;5033606;28;20406;-71
2023/12/13 10:52:50;;;;;;;4.33;1.57;;;10.20;9.80;;;;;;5033582;28;20414;-72
2023/12/13 10:55:18;;;;;;;2.80;1.40;;;10.20;9.40;;;;;;5032676;28;20781;-72
2023/12/13 10:57:44;;;;;;;2.83;1.10;;;10.20;9.80;;;;;;5033287;28;20445;-72
2023/12/13 11:00:16;;;;;;;2.17;0.87;;;10.30;9.50;;;;;;5033478;28;20852;-71
2023/12/13 11:02:52;;;;;;;2.63;1.00;;;10.30;8.10;;;;;;5033629;28;20414;-71
2023/12/13 11:05:19;;;;;;;2.50;1.20;;;10.20;6.30;;;;;;5033470;28;20412;-72
2023/12/13 11:07:45;;;;;;;3.60;1.23;;;10.20;6.70;;;;;;5033365;28;20441;-72
2023/12/13 11:10:13;;;;;;;2.77;1.13;;;10.30;7.60;;;;;;5033037;28;20414;-72
2023/12/13 11:12:52;;;;;;;4.10;1.63;;;10.50;7.10;;;;;;5033280;28;20410;-72
2023/12/13 11:15:20;;;;;;;3.90;1.67;;;10.50;6.70;;;;;;5033662;28;20445;-72
2023/12/13 11:17:53;;;;;;;2.90;1.67;;;10.40;4.10;;;;;;5032893;28;20453;-71
2023/12/13 11:20:22;;;;;;;2.33;0.87;;;10.60;4.90;;;;;;5033814;28;20485;-71
2023/12/13 11:22:49;;;;;;;1.90;0.70;;;10.70;3.50;;;;;;5033841;28;20514;-70
2023/12/13 11:25:15;;;;;;;1.90;0.80;;;10.60;1.00;;;;;;5032843;28;20402;-71
2023/12/13 11:27:55;;;;;;;2.10;0.93;;;10.90;2.20;;;;;;5032529;28;20489;-71
2023/12/13 11:30:21;;;;;;;3.13;1.17;;;10.60;1.10;;;;;;5034354;28;20493;-71
2023/12/13 11:32:47;;;;;;;2.60;0.90;;;10.60;3.90;;;;;;5032964;28;20421;-71
2023/12/13 11:35:16;;;;;;;6.77;1.70;;;10.30;3.20;;;;;;5033448;28;20978;-71
2023/12/13 11:37:49;;;;;;;1.93;0.60;;;10.40;4.30;;;;;;5032721;28;20547;-71
2023/12/13 11:40:15;;;;;;;1.93;0.90;;;10.50;4.70;;;;;;5032697;28;20409;-71
2023/12/13 11:42:41;;;;;;;2.27;1.43;;;10.70;7.10;;;;;;5032668;28;20425;-71
2023/12/13 11:45:07;;;;;;;4.37;2.83;;;10.60;5.20;;;;;;5014664;28;20192;-71
2023/12/13 11:47:32;;;;;;;3.83;2.70;;;10.60;4.70;;;;;;5032386;28;20247;-71
2023/12/13 11:49:58;;;;;;;3.17;1.60;;;10.50;4.80;;;;;;5032700;28;20195;-71
2023/12/13 11:52:24;;;;;;;3.40;1.47;;;10.60;5.30;;;;;;5032801;28;20646;-71
2023/12/13 11:54:50;;;;;;;2.83;1.37;;;10.50;3.60;;;;;;5032695;28;20258;-71
2023/12/13 11:57:18;;;;;;;2.13;0.87;;;10.70;5.00;;;;;;5032026;28;20203;-71
2023/12/13 11:59:46;;;;;;;3.77;2.03;;;10.70;3.10;;;;;;5032330;28;20468;-71
2023/12/13 12:02:16;;;;;;;3.97;1.57;;;10.70;4.90;;;;;;5032056;28;20471;-71
2023/12/13 12:04:43;;;;;;;3.07;0.90;;;10.60;3.10;;;;;;5031832;28;20440;-71
2023/12/13 12:07:14;;;;;;;2.47;0.80;;;10.60;3.00;;;;;;5014566;28;20478;-72
2023/12/13 12:09:40;;;;;;;1.70;0.70;;;10.70;2.90;;;;;;5032651;28;20410;-72
2023/12/13 12:12:08;;;;;;;1.70;0.70;;;10.70;4.20;;;;;;5032394;28;20941;-71
2023/12/13 12:14:33;;;;;;;2.10;0.90;;;10.80;4.20;;;;;;5032142;28;20420;-71
2023/12/13 12:17:01;;;;;;;4.33;0.87;;;10.70;3.80;;;;;;5032291;28;20447;-72
2023/12/13 12:19:29;;;;;;;4.47;0.80;;;10.60;3.90;;;;;;5032404;28;20184;-72
2023/12/13 12:21:54;;;;;;;1.90;0.73;;;10.60;4.50;;;;;;5031981;28;20422;-72
2023/12/13 12:24:26;;;;;;;3.07;0.90;;;10.50;3.50;;;;;;5031638;28;20424;-72
2023/12/13 12:26:52;;;;;;;1.53;0.60;;;10.50;4.50;;;;;;5032322;28;20210;-72
2023/12/13 12:29:17;;;;;;;1.87;0.93;;;10.60;3.20;;;;;;5032071;28;20483;-72
2023/12/13 12:31:46;;;;;;;4.20;2.10;;;10.60;3.50;;;;;;5031965;28;20220;-72
2023/12/13 12:34:13;;;;;;;2.37;1.03;;;10.90;2.90;;;;;;5031755;28;20596;-72
2023/12/13 12:36:38;;;;;;;4.00;1.63;;;10.70;2.50;;;;;;5032391;28;20445;-72
2023/12/13 12:39:04;;;;;;;1.70;0.70;;;10.80;3.20;;;;;;5031379;28;20423;-72
2023/12/13 12:41:34;;;;;;;1.77;0.90;;;10.80;1.90;;;;;;5014006;28;20189;-72
2023/12/13 12:44:00;;;;;;;2.73;1.30;;;10.80;1.90;;;;;;5013904;28;20210;-72
2023/12/13 12:46:26;;;;;;;2.80;1.60;;;10.80;2.60;;;;;;5031697;28;20579;-72
2023/12/13 12:48:51;;;;;;;2.20;1.10;;;10.90;2.60;;;;;;5031463;28;20431;-72
2023/12/13 12:51:17;;;;;;;3.20;1.57;;;11.00;2.50;;;;;;5031890;28;20669;-72
2023/12/13 12:53:42;;;;;;;2.40;1.20;;;11.00;3.40;;;;;;5031689;28;20651;-72